sensor_id;sensor_type;location;lat;lon;timestamp;P1;durP1;ratioP1;P2;durP2;ratioP2
12966;SDS011;6548;49.996;8.238;2023-03-22T00:00:47;29.88;;;16.27;;
12966;SDS011;6548;49.996;8.238;2023-03-22T00:03:14;28.83;;;17.85;;
12966;SDS011;6548;49.996;8.238;2023-03-22T00:05:40;27.83;;;15.57;;
12966;SDS011;6548;49.996;8.238;2023-03-22T00:08:05;21.58;;;13.32;;
12966;SDS011;6548;49.996;8.238;2023-03-22T00:10:33;29.13;;;16.42;;
12966;SDS011;6548;49.996;8.238;2023-03-22T00:13:00;32.83;;;17.98;;
12966;SDS011;6548;49.996;8.238;2023-03-22T00:15:26;29.95;;;17.40;;
12966;SDS011;6548;49.996;8.238;2023-03-22T00:17:53;26.30;;;16.48;;
12966;SDS011;6548;49.996;8.238;2023-03-22T00:20:20;27.73;;;15.82;;
12966;SDS011;6548;49.996;8.238;2023-03-22T00:22:47;30.00;;;16.50;;
12966;SDS011;6548;49.996;8.238;2023-03-22T00:25:13;27.13;;;17.08;;
12966;SDS011;6548;49.996;8.238;2023-03-22T00:27:39;24.52;;;14.73;;
12966;SDS011;6548;49.996;8.238;2023-03-22T00:30:05;25.45;;;14.70;;
12966;SDS011;6548;49.996;8.238;2023-03-22T00:32:34;29.92;;;15.75;;
12966;SDS011;6548;49.996;8.238;2023-03-22T00:35:00;25.98;;;16.08;;
12966;SDS011;6548;49.996;8.238;2023-03-22T00:37:26;25.75;;;16.40;;
12966;SDS011;6548;49.996;8.238;2023-03-22T00:39:58;23.40;;;15.52;;
12966;SDS011;6548;49.996;8.238;2023-03-22T00:42:24;23.92;;;14.20;;
12966;SDS011;6548;49.996;8.238;2023-03-22T00:44:49;25.35;;;15.40;;
12966;SDS011;6548;49.996;8.238;2023-03-22T00:47:15;26.08;;;14.95;;
12966;SDS011;6548;49.996;8.238;2023-03-22T00:49:40;21.65;;;13.75;;
12966;SDS011;6548;49.996;8.238;2023-03-22T00:52:06;28.55;;;15.95;;
12966;SDS011;6548;49.996;8.238;2023-03-22T00:54:31;25.42;;;16.75;;
12966;SDS011;6548;49.996;8.238;2023-03-22T00:56:57;28.92;;;16.38;;
12966;SDS011;6548;49.996;8.238;2023-03-22T00:59:22;29.10;;;15.68;;
12966;SDS011;6548;49.996;8.238;2023-03-22T01:01:48;32.33;;;16.85;;
12966;SDS011;6548;49.996;8.238;2023-03-22T01:04:13;28.83;;;16.65;;
12966;SDS011;6548;49.996;8.238;2023-03-22T01:06:42;27.55;;;16.10;;
12966;SDS011;6548;49.996;8.238;2023-03-22T01:09:08;27.48;;;15.98;;
12966;SDS011;6548;49.996;8.238;2023-03-22T01:11:39;31.23;;;17.50;;
12966;SDS011;6548;49.996;8.238;2023-03-22T01:14:06;27.45;;;16.77;;
12966;SDS011;6548;49.996;8.238;2023-03-22T01:16:33;27.38;;;16.50;;
12966;SDS011;6548;49.996;8.238;2023-03-22T01:19:00;31.42;;;15.60;;
12966;SDS011;6548;49.996;8.238;2023-03-22T01:21:26;22.58;;;13.95;;
12966;SDS011;6548;49.996;8.238;2023-03-22T01:23:51;26.73;;;15.57;;
12966;SDS011;6548;49.996;8.238;2023-03-22T01:26:17;26.35;;;13.65;;
12966;SDS011;6548;49.996;8.238;2023-03-22T01:28:42;25.17;;;15.70;;
12966;SDS011;6548;49.996;8.238;2023-03-22T01:31:08;26.75;;;14.98;;
12966;SDS011;6548;49.996;8.238;2023-03-22T01:33:34;26.52;;;15.38;;
12966;SDS011;6548;49.996;8.238;2023-03-22T01:35:59;28.92;;;14.63;;
12966;SDS011;6548;49.996;8.238;2023-03-22T01:38:25;24.65;;;14.10;;
12966;SDS011;6548;49.996;8.238;2023-03-22T01:40:50;25.25;;;14.85;;
12966;SDS011;6548;49.996;8.238;2023-03-22T01:43:16;21.98;;;13.48;;
12966;SDS011;6548;49.996;8.238;2023-03-22T01:45:43;20.40;;;12.07;;
12966;SDS011;6548;49.996;8.238;2023-03-22T01:48:34;17.02;;;10.57;;
12966;SDS011;6548;49.996;8.238;2023-03-22T01:51:15;21.05;;;12.52;;
12966;SDS011;6548;49.996;8.238;2023-03-22T01:53:46;18.23;;;11.52;;
12966;SDS011;6548;49.996;8.238;2023-03-22T01:56:14;20.88;;;12.73;;
12966;SDS011;6548;49.996;8.238;2023-03-22T01:58:43;21.98;;;11.90;;
12966;SDS011;6548;49.996;8.238;2023-03-22T02:01:10;19.02;;;11.80;;
12966;SDS011;6548;49.996;8.238;2023-03-22T02:03:42;19.98;;;11.55;;
12966;SDS011;6548;49.996;8.238;2023-03-22T02:06:15;21.23;;;12.13;;
12966;SDS011;6548;49.996;8.238;2023-03-22T02:08:42;15.98;;;11.48;;
12966;SDS011;6548;49.996;8.238;2023-03-22T02:11:09;17.75;;;11.88;;
12966;SDS011;6548;49.996;8.238;2023-03-22T02:19:40;14.82;;;10.25;;
12966;SDS011;6548;49.996;8.238;2023-03-22T02:27:51;29.75;;;12.93;;
12966;SDS011;6548;49.996;8.238;2023-03-22T02:31:12;39.92;;;13.32;;
12966;SDS011;6548;49.996;8.238;2023-03-22T02:38:57;33.35;;;13.68;;
12966;SDS011;6548;49.996;8.238;2023-03-22T02:41:41;22.85;;;13.23;;
12966;SDS011;6548;49.996;8.238;2023-03-22T02:44:22;26.63;;;11.80;;
12966;SDS011;6548;49.996;8.238;2023-03-22T02:47:04;22.23;;;12.10;;
12966;SDS011;6548;49.996;8.238;2023-03-22T02:52:14;36.60;;;14.27;;
12966;SDS011;6548;49.996;8.238;2023-03-22T02:54:55;31.38;;;12.57;;
12966;SDS011;6548;49.996;8.238;2023-03-22T03:00:21;40.03;;;14.60;;
12966;SDS011;6548;49.996;8.238;2023-03-22T03:02:53;26.38;;;14.88;;
12966;SDS011;6548;49.996;8.238;2023-03-22T03:05:27;29.75;;;14.63;;
12966;SDS011;6548;49.996;8.238;2023-03-22T03:07:57;25.00;;;14.68;;
12966;SDS011;6548;49.996;8.238;2023-03-22T03:10:26;25.23;;;14.23;;
12966;SDS011;6548;49.996;8.238;2023-03-22T03:12:53;23.90;;;14.23;;
12966;SDS011;6548;49.996;8.238;2023-03-22T03:15:19;20.55;;;12.88;;
12966;SDS011;6548;49.996;8.238;2023-03-22T03:20:37;23.38;;;13.57;;
12966;SDS011;6548;49.996;8.238;2023-03-22T03:24:02;20.90;;;12.32;;
12966;SDS011;6548;49.996;8.238;2023-03-22T03:26:33;25.88;;;14.38;;
12966;SDS011;6548;49.996;8.238;2023-03-22T03:29:03;27.50;;;13.93;;
12966;SDS011;6548;49.996;8.238;2023-03-22T03:31:45;32.42;;;13.25;;
12966;SDS011;6548;49.996;8.238;2023-03-22T03:37:08;41.78;;;16.40;;
12966;SDS011;6548;49.996;8.238;2023-03-22T03:39:40;27.57;;;13.07;;
12966;SDS011;6548;49.996;8.238;2023-03-22T03:42:28;39.63;;;14.65;;
12966;SDS011;6548;49.996;8.238;2023-03-22T03:44:55;40.55;;;17.23;;
12966;SDS011;6548;49.996;8.238;2023-03-22T03:47:21;42.42;;;14.77;;
12966;SDS011;6548;49.996;8.238;2023-03-22T03:49:48;37.40;;;14.23;;
12966;SDS011;6548;49.996;8.238;2023-03-22T03:52:14;30.27;;;14.35;;
12966;SDS011;6548;49.996;8.238;2023-03-22T03:54:40;30.85;;;14.40;;
12966;SDS011;6548;49.996;8.238;2023-03-22T03:57:06;40.47;;;15.32;;
12966;SDS011;6548;49.996;8.238;2023-03-22T03:59:32;38.72;;;15.73;;
12966;SDS011;6548;49.996;8.238;2023-03-22T04:01:57;34.63;;;14.80;;
12966;SDS011;6548;49.996;8.238;2023-03-22T04:04:27;48.30;;;16.42;;
12966;SDS011;6548;49.996;8.238;2023-03-22T04:06:57;55.50;;;15.75;;
12966;SDS011;6548;49.996;8.238;2023-03-22T04:09:24;33.95;;;13.88;;
12966;SDS011;6548;49.996;8.238;2023-03-22T04:11:52;55.03;;;14.13;;
12966;SDS011;6548;49.996;8.238;2023-03-22T04:14:18;42.42;;;13.85;;
12966;SDS011;6548;49.996;8.238;2023-03-22T04:16:44;38.00;;;14.30;;
12966;SDS011;6548;49.996;8.238;2023-03-22T04:19:10;34.33;;;13.35;;
12966;SDS011;6548;49.996;8.238;2023-03-22T04:21:36;44.10;;;14.18;;
12966;SDS011;6548;49.996;8.238;2023-03-22T04:24:02;28.23;;;12.82;;
12966;SDS011;6548;49.996;8.238;2023-03-22T04:26:28;28.15;;;13.77;;
12966;SDS011;6548;49.996;8.238;2023-03-22T04:28:53;32.53;;;13.45;;
12966;SDS011;6548;49.996;8.238;2023-03-22T04:31:20;31.10;;;13.73;;
12966;SDS011;6548;49.996;8.238;2023-03-22T04:33:46;23.73;;;10.65;;
12966;SDS011;6548;49.996;8.238;2023-03-22T04:36:13;27.45;;;13.30;;
12966;SDS011;6548;49.996;8.238;2023-03-22T04:38:41;33.40;;;12.00;;
12966;SDS011;6548;49.996;8.238;2023-03-22T04:41:07;20.58;;;11.73;;
12966;SDS011;6548;49.996;8.238;2023-03-22T04:43:33;31.95;;;12.15;;
12966;SDS011;6548;49.996;8.238;2023-03-22T04:46:02;44.08;;;12.40;;
12966;SDS011;6548;49.996;8.238;2023-03-22T04:48:28;54.28;;;13.35;;
12966;SDS011;6548;49.996;8.238;2023-03-22T04:50:54;33.55;;;11.65;;
12966;SDS011;6548;49.996;8.238;2023-03-22T04:53:20;39.80;;;11.45;;
12966;SDS011;6548;49.996;8.238;2023-03-22T04:55:51;54.55;;;12.85;;
12966;SDS011;6548;49.996;8.238;2023-03-22T04:58:20;40.50;;;12.27;;
12966;SDS011;6548;49.996;8.238;2023-03-22T05:00:50;42.53;;;12.68;;
12966;SDS011;6548;49.996;8.238;2023-03-22T05:03:20;34.30;;;10.80;;
12966;SDS011;6548;49.996;8.238;2023-03-22T05:05:52;30.33;;;10.63;;
12966;SDS011;6548;49.996;8.238;2023-03-22T05:08:20;33.90;;;11.15;;
12966;SDS011;6548;49.996;8.238;2023-03-22T05:10:49;39.67;;;11.63;;
12966;SDS011;6548;49.996;8.238;2023-03-22T05:13:16;45.20;;;12.05;;
12966;SDS011;6548;49.996;8.238;2023-03-22T05:15:46;44.47;;;11.57;;
12966;SDS011;6548;49.996;8.238;2023-03-22T05:18:13;52.20;;;11.30;;
12966;SDS011;6548;49.996;8.238;2023-03-22T05:20:40;47.83;;;11.55;;
12966;SDS011;6548;49.996;8.238;2023-03-22T05:23:13;44.95;;;11.80;;
12966;SDS011;6548;49.996;8.238;2023-03-22T05:25:43;29.42;;;12.77;;
12966;SDS011;6548;49.996;8.238;2023-03-22T05:28:11;29.08;;;11.27;;
12966;SDS011;6548;49.996;8.238;2023-03-22T05:30:38;32.25;;;11.43;;
12966;SDS011;6548;49.996;8.238;2023-03-22T05:33:05;27.52;;;11.32;;
12966;SDS011;6548;49.996;8.238;2023-03-22T05:35:32;31.45;;;13.00;;
12966;SDS011;6548;49.996;8.238;2023-03-22T05:37:59;36.75;;;12.10;;
12966;SDS011;6548;49.996;8.238;2023-03-22T05:40:25;41.58;;;12.98;;
12966;SDS011;6548;49.996;8.238;2023-03-22T05:42:51;24.23;;;11.63;;
12966;SDS011;6548;49.996;8.238;2023-03-22T05:45:18;21.48;;;11.52;;
12966;SDS011;6548;49.996;8.238;2023-03-22T05:47:44;17.33;;;11.07;;
12966;SDS011;6548;49.996;8.238;2023-03-22T05:50:11;26.85;;;12.60;;
12966;SDS011;6548;49.996;8.238;2023-03-22T05:52:39;19.38;;;12.35;;
12966;SDS011;6548;49.996;8.238;2023-03-22T05:55:06;22.00;;;12.85;;
12966;SDS011;6548;49.996;8.238;2023-03-22T05:57:33;19.88;;;11.95;;
12966;SDS011;6548;49.996;8.238;2023-03-22T05:59:58;18.73;;;12.95;;
12966;SDS011;6548;49.996;8.238;2023-03-22T06:02:25;21.15;;;12.77;;
12966;SDS011;6548;49.996;8.238;2023-03-22T06:04:52;17.55;;;12.02;;
12966;SDS011;6548;49.996;8.238;2023-03-22T06:07:17;17.52;;;11.05;;
12966;SDS011;6548;49.996;8.238;2023-03-22T06:09:43;17.83;;;12.82;;
12966;SDS011;6548;49.996;8.238;2023-03-22T06:12:10;17.10;;;11.20;;
12966;SDS011;6548;49.996;8.238;2023-03-22T06:14:35;19.70;;;13.18;;
12966;SDS011;6548;49.996;8.238;2023-03-22T06:17:01;15.90;;;11.75;;
12966;SDS011;6548;49.996;8.238;2023-03-22T06:19:27;20.77;;;11.43;;
12966;SDS011;6548;49.996;8.238;2023-03-22T06:21:53;18.10;;;12.63;;
12966;SDS011;6548;49.996;8.238;2023-03-22T06:24:19;16.98;;;11.88;;
12966;SDS011;6548;49.996;8.238;2023-03-22T06:26:45;17.85;;;11.73;;
12966;SDS011;6548;49.996;8.238;2023-03-22T06:29:11;21.98;;;11.52;;
12966;SDS011;6548;49.996;8.238;2023-03-22T06:31:37;19.05;;;12.02;;
12966;SDS011;6548;49.996;8.238;2023-03-22T06:34:02;15.85;;;10.43;;
12966;SDS011;6548;49.996;8.238;2023-03-22T06:36:29;34.83;;;12.70;;
12966;SDS011;6548;49.996;8.238;2023-03-22T06:38:58;59.33;;;12.95;;
12966;SDS011;6548;49.996;8.238;2023-03-22T06:41:25;32.83;;;11.57;;
12966;SDS011;6548;49.996;8.238;2023-03-22T06:43:51;44.65;;;14.13;;
12966;SDS011;6548;49.996;8.238;2023-03-22T06:46:16;36.28;;;12.85;;
12966;SDS011;6548;49.996;8.238;2023-03-22T06:48:42;34.78;;;12.65;;
12966;SDS011;6548;49.996;8.238;2023-03-22T06:51:10;26.33;;;11.98;;
12966;SDS011;6548;49.996;8.238;2023-03-22T06:53:35;30.67;;;12.60;;
12966;SDS011;6548;49.996;8.238;2023-03-22T06:56:01;20.88;;;12.07;;
12966;SDS011;6548;49.996;8.238;2023-03-22T06:58:27;17.15;;;11.48;;
12966;SDS011;6548;49.996;8.238;2023-03-22T07:00:54;16.55;;;10.40;;
12966;SDS011;6548;49.996;8.238;2023-03-22T07:03:20;20.10;;;12.73;;
12966;SDS011;6548;49.996;8.238;2023-03-22T07:05:45;19.77;;;11.75;;
12966;SDS011;6548;49.996;8.238;2023-03-22T07:08:11;17.02;;;11.38;;
12966;SDS011;6548;49.996;8.238;2023-03-22T07:10:36;18.45;;;12.00;;
12966;SDS011;6548;49.996;8.238;2023-03-22T07:13:02;16.35;;;10.65;;
12966;SDS011;6548;49.996;8.238;2023-03-22T07:15:28;14.15;;;9.38;;
12966;SDS011;6548;49.996;8.238;2023-03-22T07:17:55;15.57;;;12.00;;
12966;SDS011;6548;49.996;8.238;2023-03-22T07:20:21;19.15;;;11.52;;
12966;SDS011;6548;49.996;8.238;2023-03-22T07:22:47;16.73;;;12.50;;
12966;SDS011;6548;49.996;8.238;2023-03-22T07:25:13;15.10;;;10.90;;
12966;SDS011;6548;49.996;8.238;2023-03-22T07:27:39;13.40;;;9.95;;
12966;SDS011;6548;49.996;8.238;2023-03-22T07:30:05;19.70;;;10.95;;
12966;SDS011;6548;49.996;8.238;2023-03-22T07:32:31;11.77;;;8.88;;
12966;SDS011;6548;49.996;8.238;2023-03-22T07:34:57;14.13;;;8.90;;
12966;SDS011;6548;49.996;8.238;2023-03-22T07:37:22;12.77;;;8.98;;
12966;SDS011;6548;49.996;8.238;2023-03-22T07:39:48;12.10;;;8.48;;
12966;SDS011;6548;49.996;8.238;2023-03-22T07:42:14;14.70;;;9.18;;
12966;SDS011;6548;49.996;8.238;2023-03-22T07:44:41;11.63;;;8.70;;
12966;SDS011;6548;49.996;8.238;2023-03-22T07:47:07;14.15;;;8.95;;
12966;SDS011;6548;49.996;8.238;2023-03-22T07:49:33;13.50;;;9.43;;
12966;SDS011;6548;49.996;8.238;2023-03-22T07:52:05;11.60;;;8.68;;
12966;SDS011;6548;49.996;8.238;2023-03-22T07:54:44;14.57;;;9.27;;
12966;SDS011;6548;49.996;8.238;2023-03-22T07:57:15;13.07;;;8.95;;
12966;SDS011;6548;49.996;8.238;2023-03-22T07:59:45;10.38;;;7.97;;
12966;SDS011;6548;49.996;8.238;2023-03-22T08:02:13;11.95;;;8.90;;
12966;SDS011;6548;49.996;8.238;2023-03-22T08:04:40;11.40;;;8.15;;
12966;SDS011;6548;49.996;8.238;2023-03-22T08:07:05;11.65;;;9.20;;
12966;SDS011;6548;49.996;8.238;2023-03-22T08:09:35;12.60;;;9.20;;
12966;SDS011;6548;49.996;8.238;2023-03-22T08:12:03;13.20;;;9.07;;
12966;SDS011;6548;49.996;8.238;2023-03-22T08:14:32;12.82;;;8.30;;
12966;SDS011;6548;49.996;8.238;2023-03-22T08:16:58;11.55;;;8.43;;
12966;SDS011;6548;49.996;8.238;2023-03-22T08:19:24;13.20;;;8.63;;
12966;SDS011;6548;49.996;8.238;2023-03-22T08:21:51;10.57;;;6.40;;
12966;SDS011;6548;49.996;8.238;2023-03-22T08:24:16;7.15;;;3.78;;
12966;SDS011;6548;49.996;8.238;2023-03-22T08:26:42;7.75;;;3.72;;
12966;SDS011;6548;49.996;8.238;2023-03-22T08:29:09;5.10;;;3.30;;
12966;SDS011;6548;49.996;8.238;2023-03-22T08:31:35;9.07;;;5.55;;
12966;SDS011;6548;49.996;8.238;2023-03-22T08:34:10;5.15;;;3.85;;
12966;SDS011;6548;49.996;8.238;2023-03-22T08:36:36;9.63;;;4.10;;
12966;SDS011;6548;49.996;8.238;2023-03-22T08:39:02;6.05;;;3.40;;
12966;SDS011;6548;49.996;8.238;2023-03-22T08:41:29;7.43;;;3.40;;
12966;SDS011;6548;49.996;8.238;2023-03-22T08:43:54;6.95;;;3.63;;
12966;SDS011;6548;49.996;8.238;2023-03-22T08:46:38;4.72;;;3.58;;
12966;SDS011;6548;49.996;8.238;2023-03-22T08:49:04;7.90;;;3.40;;
12966;SDS011;6548;49.996;8.238;2023-03-22T08:51:29;5.78;;;3.35;;
12966;SDS011;6548;49.996;8.238;2023-03-22T08:53:55;4.57;;;3.33;;
12966;SDS011;6548;49.996;8.238;2023-03-22T08:56:24;5.35;;;3.00;;
12966;SDS011;6548;49.996;8.238;2023-03-22T08:58:51;3.83;;;2.50;;
12966;SDS011;6548;49.996;8.238;2023-03-22T09:01:17;4.50;;;2.47;;
12966;SDS011;6548;49.996;8.238;2023-03-22T09:03:44;4.22;;;2.90;;
12966;SDS011;6548;49.996;8.238;2023-03-22T09:06:10;3.97;;;2.20;;
12966;SDS011;6548;49.996;8.238;2023-03-22T09:08:37;3.38;;;2.35;;
12966;SDS011;6548;49.996;8.238;2023-03-22T09:11:03;7.88;;;2.97;;
12966;SDS011;6548;49.996;8.238;2023-03-22T09:13:31;5.45;;;2.20;;
12966;SDS011;6548;49.996;8.238;2023-03-22T09:15:58;3.92;;;1.80;;
12966;SDS011;6548;49.996;8.238;2023-03-22T09:18:24;5.50;;;2.50;;
12966;SDS011;6548;49.996;8.238;2023-03-22T09:20:50;3.22;;;2.00;;
12966;SDS011;6548;49.996;8.238;2023-03-22T09:23:16;4.97;;;2.05;;
12966;SDS011;6548;49.996;8.238;2023-03-22T09:25:42;6.45;;;2.33;;
12966;SDS011;6548;49.996;8.238;2023-03-22T09:28:08;4.13;;;2.33;;
12966;SDS011;6548;49.996;8.238;2023-03-22T09:30:34;3.65;;;2.00;;
12966;SDS011;6548;49.996;8.238;2023-03-22T09:33:00;2.85;;;1.73;;
12966;SDS011;6548;49.996;8.238;2023-03-22T09:35:26;2.38;;;1.90;;
12966;SDS011;6548;49.996;8.238;2023-03-22T09:37:52;4.57;;;2.88;;
12966;SDS011;6548;49.996;8.238;2023-03-22T09:40:18;5.00;;;1.85;;
12966;SDS011;6548;49.996;8.238;2023-03-22T09:42:48;5.25;;;1.70;;
12966;SDS011;6548;49.996;8.238;2023-03-22T09:45:17;4.28;;;2.35;;
12966;SDS011;6548;49.996;8.238;2023-03-22T09:47:48;5.22;;;1.58;;
12966;SDS011;6548;49.996;8.238;2023-03-22T09:52:47;3.95;;;1.90;;
12966;SDS011;6548;49.996;8.238;2023-03-22T09:55:33;5.50;;;2.05;;
12966;SDS011;6548;49.996;8.238;2023-03-22T09:58:20;2.88;;;1.77;;
12966;SDS011;6548;49.996;8.238;2023-03-22T10:00:48;4.97;;;2.00;;
12966;SDS011;6548;49.996;8.238;2023-03-22T10:11:46;3.50;;;1.77;;
12966;SDS011;6548;49.996;8.238;2023-03-22T10:14:35;4.03;;;1.80;;
12966;SDS011;6548;49.996;8.238;2023-03-22T10:17:07;4.35;;;2.10;;
12966;SDS011;6548;49.996;8.238;2023-03-22T10:19:47;3.95;;;1.88;;
12966;SDS011;6548;49.996;8.238;2023-03-22T10:22:28;2.88;;;1.60;;
12966;SDS011;6548;49.996;8.238;2023-03-22T10:24:58;2.22;;;1.58;;
12966;SDS011;6548;49.996;8.238;2023-03-22T10:27:25;6.38;;;1.60;;
12966;SDS011;6548;49.996;8.238;2023-03-22T10:30:38;2.80;;;1.40;;
12966;SDS011;6548;49.996;8.238;2023-03-22T10:32:59;3.13;;;1.60;;
12966;SDS011;6548;49.996;8.238;2023-03-22T10:35:30;2.85;;;1.38;;
12966;SDS011;6548;49.996;8.238;2023-03-22T10:37:59;0.82;;;0.80;;
12966;SDS011;6548;49.996;8.238;2023-03-22T10:40:31;2.47;;;1.20;;
12966;SDS011;6548;49.996;8.238;2023-03-22T10:43:03;3.03;;;1.20;;
12966;SDS011;6548;49.996;8.238;2023-03-22T10:45:33;2.65;;;1.50;;
12966;SDS011;6548;49.996;8.238;2023-03-22T10:48:08;1.88;;;1.02;;
12966;SDS011;6548;49.996;8.238;2023-03-22T10:50:41;2.60;;;1.00;;
12966;SDS011;6548;49.996;8.238;2023-03-22T10:53:18;2.55;;;1.20;;
12966;SDS011;6548;49.996;8.238;2023-03-22T10:55:53;3.45;;;1.10;;
12966;SDS011;6548;49.996;8.238;2023-03-22T10:58:25;1.38;;;0.75;;
12966;SDS011;6548;49.996;8.238;2023-03-22T11:00:58;2.00;;;0.98;;
12966;SDS011;6548;49.996;8.238;2023-03-22T11:03:30;3.72;;;1.02;;
12966;SDS011;6548;49.996;8.238;2023-03-22T11:06:23;1.42;;;1.38;;
12966;SDS011;6548;49.996;8.238;2023-03-22T11:09:07;0.80;;;0.70;;
12966;SDS011;6548;49.996;8.238;2023-03-22T11:11:49;1.08;;;0.98;;
12966;SDS011;6548;49.996;8.238;2023-03-22T11:14:19;2.88;;;1.25;;
12966;SDS011;6548;49.996;8.238;2023-03-22T11:19:31;1.67;;;0.60;;
12966;SDS011;6548;49.996;8.238;2023-03-22T11:21:57;1.23;;;0.70;;
12966;SDS011;6548;49.996;8.238;2023-03-22T11:24:25;1.17;;;0.75;;
12966;SDS011;6548;49.996;8.238;2023-03-22T11:27:06;1.98;;;0.95;;
12966;SDS011;6548;49.996;8.238;2023-03-22T11:30:00;2.25;;;1.05;;
12966;SDS011;6548;49.996;8.238;2023-03-22T11:32:44;2.20;;;0.90;;
12966;SDS011;6548;49.996;8.238;2023-03-22T11:35:11;1.33;;;1.02;;
12966;SDS011;6548;49.996;8.238;2023-03-22T11:37:48;1.35;;;1.00;;
12966;SDS011;6548;49.996;8.238;2023-03-22T11:40:16;1.58;;;0.90;;
12966;SDS011;6548;49.996;8.238;2023-03-22T11:42:42;0.82;;;0.82;;
12966;SDS011;6548;49.996;8.238;2023-03-22T11:45:15;1.15;;;0.90;;
12966;SDS011;6548;49.996;8.238;2023-03-22T11:47:47;1.25;;;0.70;;
12966;SDS011;6548;49.996;8.238;2023-03-22T11:50:46;1.60;;;1.08;;
12966;SDS011;6548;49.996;8.238;2023-03-22T11:53:09;0.57;;;0.55;;
12966;SDS011;6548;49.996;8.238;2023-03-22T11:55:39;1.38;;;0.90;;
12966;SDS011;6548;49.996;8.238;2023-03-22T11:58:06;2.03;;;1.00;;
12966;SDS011;6548;49.996;8.238;2023-03-22T12:00:32;1.33;;;0.90;;
12966;SDS011;6548;49.996;8.238;2023-03-22T12:05:31;1.40;;;0.90;;
12966;SDS011;6548;49.996;8.238;2023-03-22T12:08:00;1.10;;;1.00;;
12966;SDS011;6548;49.996;8.238;2023-03-22T12:10:40;1.05;;;0.52;;
12966;SDS011;6548;49.996;8.238;2023-03-22T12:13:21;2.13;;;1.60;;
12966;SDS011;6548;49.996;8.238;2023-03-22T12:16:23;1.70;;;1.10;;
12966;SDS011;6548;49.996;8.238;2023-03-22T12:19:12;2.00;;;0.88;;
12966;SDS011;6548;49.996;8.238;2023-03-22T12:21:48;0.85;;;0.65;;
12966;SDS011;6548;49.996;8.238;2023-03-22T12:24:23;1.50;;;0.65;;
12966;SDS011;6548;49.996;8.238;2023-03-22T12:26:56;1.40;;;1.30;;
12966;SDS011;6548;49.996;8.238;2023-03-22T12:29:24;0.55;;;0.55;;
12966;SDS011;6548;49.996;8.238;2023-03-22T12:31:57;3.22;;;1.10;;
12966;SDS011;6548;49.996;8.238;2023-03-22T12:34:49;1.05;;;0.70;;
12966;SDS011;6548;49.996;8.238;2023-03-22T12:37:26;2.92;;;0.85;;
12966;SDS011;6548;49.996;8.238;2023-03-22T12:40:30;1.95;;;0.60;;
12966;SDS011;6548;49.996;8.238;2023-03-22T12:45:38;0.98;;;0.73;;
12966;SDS011;6548;49.996;8.238;2023-03-22T12:50:48;0.77;;;0.75;;
12966;SDS011;6548;49.996;8.238;2023-03-22T12:53:19;1.00;;;0.90;;
12966;SDS011;6548;49.996;8.238;2023-03-22T12:55:46;1.75;;;0.90;;
12966;SDS011;6548;49.996;8.238;2023-03-22T12:58:18;2.08;;;0.98;;
12966;SDS011;6548;49.996;8.238;2023-03-22T13:00:53;1.33;;;1.00;;
12966;SDS011;6548;49.996;8.238;2023-03-22T13:03:35;1.25;;;0.90;;
12966;SDS011;6548;49.996;8.238;2023-03-22T13:06:04;0.75;;;0.75;;
12966;SDS011;6548;49.996;8.238;2023-03-22T13:11:36;1.08;;;0.90;;
12966;SDS011;6548;49.996;8.238;2023-03-22T13:14:02;0.90;;;0.85;;
12966;SDS011;6548;49.996;8.238;2023-03-22T13:16:43;0.80;;;0.70;;
12966;SDS011;6548;49.996;8.238;2023-03-22T13:19:33;0.85;;;0.60;;
12966;SDS011;6548;49.996;8.238;2023-03-22T13:35:25;1.95;;;0.77;;
12966;SDS011;6548;49.996;8.238;2023-03-22T13:37:52;1.42;;;0.93;;
12966;SDS011;6548;49.996;8.238;2023-03-22T13:56:33;1.10;;;0.80;;
12966;SDS011;6548;49.996;8.238;2023-03-22T14:05:03;0.88;;;0.80;;
12966;SDS011;6548;49.996;8.238;2023-03-22T14:15:31;1.13;;;0.73;;
12966;SDS011;6548;49.996;8.238;2023-03-22T14:18:04;1.20;;;0.80;;
12966;SDS011;6548;49.996;8.238;2023-03-22T14:20:36;1.35;;;0.70;;
12966;SDS011;6548;49.996;8.238;2023-03-22T14:23:08;1.13;;;0.88;;
12966;SDS011;6548;49.996;8.238;2023-03-22T14:25:40;2.08;;;0.60;;
12966;SDS011;6548;49.996;8.238;2023-03-22T14:28:21;2.17;;;0.90;;
12966;SDS011;6548;49.996;8.238;2023-03-22T14:30:57;0.88;;;0.82;;
12966;SDS011;6548;49.996;8.238;2023-03-22T14:33:22;1.88;;;0.80;;
12966;SDS011;6548;49.996;8.238;2023-03-22T14:36:03;0.73;;;0.60;;
12966;SDS011;6548;49.996;8.238;2023-03-22T14:38:34;1.23;;;0.50;;
12966;SDS011;6548;49.996;8.238;2023-03-22T14:41:04;0.85;;;0.60;;
12966;SDS011;6548;49.996;8.238;2023-03-22T14:43:32;2.45;;;0.73;;
12966;SDS011;6548;49.996;8.238;2023-03-22T14:46:03;1.05;;;0.70;;
12966;SDS011;6548;49.996;8.238;2023-03-22T14:48:32;2.05;;;0.52;;
12966;SDS011;6548;49.996;8.238;2023-03-22T14:51:05;5.03;;;0.70;;
12966;SDS011;6548;49.996;8.238;2023-03-22T14:53:38;1.55;;;0.70;;
12966;SDS011;6548;49.996;8.238;2023-03-22T14:56:07;2.03;;;0.80;;
12966;SDS011;6548;49.996;8.238;2023-03-22T14:58:39;2.92;;;0.73;;
12966;SDS011;6548;49.996;8.238;2023-03-22T15:01:09;1.25;;;0.75;;
12966;SDS011;6548;49.996;8.238;2023-03-22T15:03:39;2.15;;;0.90;;
12966;SDS011;6548;49.996;8.238;2023-03-22T15:06:07;1.90;;;0.60;;
12966;SDS011;6548;49.996;8.238;2023-03-22T15:08:33;1.27;;;0.70;;
12966;SDS011;6548;49.996;8.238;2023-03-22T15:11:00;0.80;;;0.70;;
12966;SDS011;6548;49.996;8.238;2023-03-22T15:13:30;4.13;;;1.00;;
12966;SDS011;6548;49.996;8.238;2023-03-22T15:15:57;1.00;;;0.80;;
12966;SDS011;6548;49.996;8.238;2023-03-22T15:18:23;1.38;;;0.80;;
12966;SDS011;6548;49.996;8.238;2023-03-22T15:20:52;1.65;;;0.93;;
12966;SDS011;6548;49.996;8.238;2023-03-22T15:23:19;2.95;;;0.70;;
12966;SDS011;6548;49.996;8.238;2023-03-22T15:25:57;1.73;;;1.10;;
12966;SDS011;6548;49.996;8.238;2023-03-22T15:28:28;1.05;;;0.80;;
12966;SDS011;6548;49.996;8.238;2023-03-22T15:31:16;1.30;;;0.70;;
12966;SDS011;6548;49.996;8.238;2023-03-22T15:33:54;2.22;;;1.13;;
12966;SDS011;6548;49.996;8.238;2023-03-22T15:36:30;1.52;;;0.70;;
12966;SDS011;6548;49.996;8.238;2023-03-22T15:39:03;1.50;;;0.80;;
12966;SDS011;6548;49.996;8.238;2023-03-22T15:41:39;2.47;;;0.85;;
12966;SDS011;6548;49.996;8.238;2023-03-22T15:44:26;1.80;;;0.75;;
12966;SDS011;6548;49.996;8.238;2023-03-22T15:46:58;0.85;;;0.70;;
12966;SDS011;6548;49.996;8.238;2023-03-22T15:49:38;0.82;;;0.82;;
12966;SDS011;6548;49.996;8.238;2023-03-22T15:52:19;1.23;;;0.70;;
12966;SDS011;6548;49.996;8.238;2023-03-22T15:57:22;1.38;;;1.00;;
12966;SDS011;6548;49.996;8.238;2023-03-22T16:00:04;2.15;;;0.93;;
12966;SDS011;6548;49.996;8.238;2023-03-22T16:02:49;1.90;;;0.90;;
12966;SDS011;6548;49.996;8.238;2023-03-22T16:05:17;3.05;;;1.05;;
12966;SDS011;6548;49.996;8.238;2023-03-22T16:07:43;2.65;;;0.85;;
12966;SDS011;6548;49.996;8.238;2023-03-22T16:10:13;1.30;;;0.90;;
12966;SDS011;6548;49.996;8.238;2023-03-22T16:19:10;1.25;;;0.80;;
12966;SDS011;6548;49.996;8.238;2023-03-22T16:21:36;1.77;;;1.00;;
12966;SDS011;6548;49.996;8.238;2023-03-22T16:24:04;1.75;;;1.02;;
12966;SDS011;6548;49.996;8.238;2023-03-22T16:26:30;1.83;;;1.17;;
12966;SDS011;6548;49.996;8.238;2023-03-22T16:28:56;1.80;;;1.40;;
12966;SDS011;6548;49.996;8.238;2023-03-22T16:31:22;2.28;;;1.05;;
12966;SDS011;6548;49.996;8.238;2023-03-22T16:33:49;1.30;;;0.73;;
12966;SDS011;6548;49.996;8.238;2023-03-22T16:36:16;6.32;;;1.55;;
12966;SDS011;6548;49.996;8.238;2023-03-22T16:38:43;3.25;;;1.35;;
12966;SDS011;6548;49.996;8.238;2023-03-22T16:41:15;3.72;;;1.05;;
12966;SDS011;6548;49.996;8.238;2023-03-22T16:43:50;2.28;;;0.77;;
12966;SDS011;6548;49.996;8.238;2023-03-22T16:46:16;3.58;;;1.15;;
12966;SDS011;6548;49.996;8.238;2023-03-22T16:48:43;3.45;;;0.93;;
12966;SDS011;6548;49.996;8.238;2023-03-22T16:51:11;2.75;;;1.08;;